sensor_id;sensor_type;location;lat;lon;timestamp;P1;durP1;ratioP1;P2;durP2;ratioP2
20443;SDS011;10381;53.730;10.010;2023-06-24T00:02:55;24.52;;;11.25;;
20443;SDS011;10381;53.730;10.010;2023-06-24T00:06:56;26.02;;;11.02;;
20443;SDS011;10381;53.730;10.010;2023-06-24T00:10:59;23.80;;;10.95;;
20443;SDS011;10381;53.730;10.010;2023-06-24T00:15:00;20.95;;;10.13;;
20443;SDS011;10381;53.730;10.010;2023-06-24T00:19:00;22.20;;;10.35;;
20443;SDS011;10381;53.730;10.010;2023-06-24T00:23:01;15.38;;;9.40;;
20443;SDS011;10381;53.730;10.010;2023-06-24T00:27:02;23.85;;;11.25;;
20443;SDS011;10381;53.730;10.010;2023-06-24T00:31:02;29.50;;;11.53;;
20443;SDS011;10381;53.730;10.010;2023-06-24T00:35:03;27.80;;;11.55;;
20443;SDS011;10381;53.730;10.010;2023-06-24T00:39:04;26.38;;;10.32;;
20443;SDS011;10381;53.730;10.010;2023-06-24T00:43:05;26.05;;;11.00;;
20443;SDS011;10381;53.730;10.010;2023-06-24T00:47:06;20.35;;;10.27;;
20443;SDS011;10381;53.730;10.010;2023-06-24T00:51:06;22.10;;;10.00;;
20443;SDS011;10381;53.730;10.010;2023-06-24T00:55:06;29.13;;;11.30;;
20443;SDS011;10381;53.730;10.010;2023-06-24T00:59:07;30.42;;;11.25;;
20443;SDS011;10381;53.730;10.010;2023-06-24T01:03:08;25.35;;;11.27;;
20443;SDS011;10381;53.730;10.010;2023-06-24T01:07:09;21.77;;;10.60;;
20443;SDS011;10381;53.730;10.010;2023-06-24T01:11:09;34.28;;;11.90;;
20443;SDS011;10381;53.730;10.010;2023-06-24T01:15:10;27.65;;;12.77;;
20443;SDS011;10381;53.730;10.010;2023-06-24T01:28:41;29.30;;;12.82;;
20443;SDS011;10381;53.730;10.010;2023-06-24T01:32:10;27.27;;;11.75;;
20443;SDS011;10381;53.730;10.010;2023-06-24T01:36:11;28.67;;;11.93;;
20443;SDS011;10381;53.730;10.010;2023-06-24T01:40:20;32.38;;;12.10;;
20443;SDS011;10381;53.730;10.010;2023-06-24T01:44:22;36.20;;;13.00;;
20443;SDS011;10381;53.730;10.010;2023-06-24T01:48:30;30.13;;;12.95;;
20443;SDS011;10381;53.730;10.010;2023-06-24T01:52:32;29.20;;;10.43;;
20443;SDS011;10381;53.730;10.010;2023-06-24T01:56:34;27.80;;;12.20;;
20443;SDS011;10381;53.730;10.010;2023-06-24T02:00:36;32.83;;;13.00;;
20443;SDS011;10381;53.730;10.010;2023-06-24T02:04:37;28.13;;;11.13;;
20443;SDS011;10381;53.730;10.010;2023-06-24T02:08:38;24.08;;;11.93;;
20443;SDS011;10381;53.730;10.010;2023-06-24T02:12:39;26.85;;;11.82;;
20443;SDS011;10381;53.730;10.010;2023-06-24T02:16:40;33.88;;;12.55;;
20443;SDS011;10381;53.730;10.010;2023-06-24T02:20:42;28.00;;;12.63;;
20443;SDS011;10381;53.730;10.010;2023-06-24T02:24:44;29.10;;;11.90;;
20443;SDS011;10381;53.730;10.010;2023-06-24T02:28:44;32.65;;;13.20;;
20443;SDS011;10381;53.730;10.010;2023-06-24T02:32:46;19.05;;;10.13;;
20443;SDS011;10381;53.730;10.010;2023-06-24T02:36:46;31.63;;;12.45;;
20443;SDS011;10381;53.730;10.010;2023-06-24T02:40:46;27.70;;;11.82;;
20443;SDS011;10381;53.730;10.010;2023-06-24T02:44:46;29.10;;;12.68;;
20443;SDS011;10381;53.730;10.010;2023-06-24T02:48:47;43.38;;;13.23;;
20443;SDS011;10381;53.730;10.010;2023-06-24T02:52:48;31.95;;;13.07;;
20443;SDS011;10381;53.730;10.010;2023-06-24T02:56:48;29.80;;;11.30;;
20443;SDS011;10381;53.730;10.010;2023-06-24T03:00:48;31.85;;;11.75;;
20443;SDS011;10381;53.730;10.010;2023-06-24T03:04:52;37.15;;;11.55;;
20443;SDS011;10381;53.730;10.010;2023-06-24T03:08:52;31.52;;;11.20;;
20443;SDS011;10381;53.730;10.010;2023-06-24T03:12:53;26.35;;;11.85;;
20443;SDS011;10381;53.730;10.010;2023-06-24T03:16:53;30.02;;;12.13;;
20443;SDS011;10381;53.730;10.010;2023-06-24T03:20:53;33.25;;;11.82;;
20443;SDS011;10381;53.730;10.010;2023-06-24T03:24:54;27.52;;;11.45;;
20443;SDS011;10381;53.730;10.010;2023-06-24T03:28:54;29.45;;;10.82;;
20443;SDS011;10381;53.730;10.010;2023-06-24T03:32:54;29.17;;;12.38;;
20443;SDS011;10381;53.730;10.010;2023-06-24T03:36:54;28.88;;;11.85;;
20443;SDS011;10381;53.730;10.010;2023-06-24T03:40:54;29.85;;;12.38;;
20443;SDS011;10381;53.730;10.010;2023-06-24T03:44:55;32.85;;;11.75;;
20443;SDS011;10381;53.730;10.010;2023-06-24T03:48:55;28.50;;;12.77;;
20443;SDS011;10381;53.730;10.010;2023-06-24T03:52:55;25.90;;;12.30;;
20443;SDS011;10381;53.730;10.010;2023-06-24T03:56:55;19.85;;;13.23;;
20443;SDS011;10381;53.730;10.010;2023-06-24T04:00:56;24.20;;;16.88;;
20443;SDS011;10381;53.730;10.010;2023-06-24T04:04:57;25.77;;;18.80;;
20443;SDS011;10381;53.730;10.010;2023-06-24T04:08:58;26.83;;;18.50;;
20443;SDS011;10381;53.730;10.010;2023-06-24T04:12:58;23.85;;;17.17;;
20443;SDS011;10381;53.730;10.010;2023-06-24T04:16:58;21.10;;;15.80;;
20443;SDS011;10381;53.730;10.010;2023-06-24T04:20:59;22.67;;;16.50;;
20443;SDS011;10381;53.730;10.010;2023-06-24T04:24:59;18.17;;;15.88;;
20443;SDS011;10381;53.730;10.010;2023-06-24T04:28:59;20.58;;;16.77;;
20443;SDS011;10381;53.730;10.010;2023-06-24T04:32:59;21.42;;;18.10;;
20443;SDS011;10381;53.730;10.010;2023-06-24T04:36:59;24.40;;;18.08;;
20443;SDS011;10381;53.730;10.010;2023-06-24T04:41:00;22.42;;;18.67;;
20443;SDS011;10381;53.730;10.010;2023-06-24T04:45:00;21.55;;;18.08;;
20443;SDS011;10381;53.730;10.010;2023-06-24T04:49:00;21.95;;;17.77;;
20443;SDS011;10381;53.730;10.010;2023-06-24T04:53:01;21.77;;;18.92;;
20443;SDS011;10381;53.730;10.010;2023-06-24T04:57:01;22.23;;;18.92;;
20443;SDS011;10381;53.730;10.010;2023-06-24T05:01:02;27.30;;;19.77;;
20443;SDS011;10381;53.730;10.010;2023-06-24T05:05:02;22.45;;;20.15;;
20443;SDS011;10381;53.730;10.010;2023-06-24T05:09:02;22.98;;;19.40;;
20443;SDS011;10381;53.730;10.010;2023-06-24T05:13:02;26.38;;;18.13;;
20443;SDS011;10381;53.730;10.010;2023-06-24T05:17:03;26.73;;;18.70;;
20443;SDS011;10381;53.730;10.010;2023-06-24T05:21:03;21.30;;;18.42;;
20443;SDS011;10381;53.730;10.010;2023-06-24T05:25:03;20.55;;;18.50;;
20443;SDS011;10381;53.730;10.010;2023-06-24T05:29:04;28.25;;;22.10;;
20443;SDS011;10381;53.730;10.010;2023-06-24T05:33:04;23.23;;;20.83;;
20443;SDS011;10381;53.730;10.010;2023-06-24T05:37:04;22.75;;;20.55;;
20443;SDS011;10381;53.730;10.010;2023-06-24T05:41:04;22.52;;;19.65;;
20443;SDS011;10381;53.730;10.010;2023-06-24T05:45:05;23.33;;;20.83;;
20443;SDS011;10381;53.730;10.010;2023-06-24T05:49:06;22.75;;;20.40;;
20443;SDS011;10381;53.730;10.010;2023-06-24T05:53:06;22.65;;;20.35;;
20443;SDS011;10381;53.730;10.010;2023-06-24T05:57:06;23.48;;;20.15;;
20443;SDS011;10381;53.730;10.010;2023-06-24T06:01:09;23.38;;;20.42;;
20443;SDS011;10381;53.730;10.010;2023-06-24T06:05:10;26.92;;;23.52;;
20443;SDS011;10381;53.730;10.010;2023-06-24T06:09:10;22.88;;;20.58;;
20443;SDS011;10381;53.730;10.010;2023-06-24T06:13:10;22.92;;;20.73;;
20443;SDS011;10381;53.730;10.010;2023-06-24T06:17:11;23.55;;;21.17;;
20443;SDS011;10381;53.730;10.010;2023-06-24T06:21:11;25.88;;;23.23;;
20443;SDS011;10381;53.730;10.010;2023-06-24T06:25:12;22.80;;;20.60;;
20443;SDS011;10381;53.730;10.010;2023-06-24T06:29:12;19.77;;;17.67;;
20443;SDS011;10381;53.730;10.010;2023-06-24T06:33:12;21.13;;;19.13;;
20443;SDS011;10381;53.730;10.010;2023-06-24T06:37:12;22.80;;;20.60;;
20443;SDS011;10381;53.730;10.010;2023-06-24T06:41:12;25.17;;;22.23;;
20443;SDS011;10381;53.730;10.010;2023-06-24T06:45:13;23.40;;;21.00;;
20443;SDS011;10381;53.730;10.010;2023-06-24T06:49:13;23.93;;;21.40;;
20443;SDS011;10381;53.730;10.010;2023-06-24T06:53:13;23.85;;;21.25;;
20443;SDS011;10381;53.730;10.010;2023-06-24T06:57:13;19.35;;;17.45;;
20443;SDS011;10381;53.730;10.010;2023-06-24T07:01:13;21.48;;;16.85;;
20443;SDS011;10381;53.730;10.010;2023-06-24T07:05:14;17.27;;;15.65;;
20443;SDS011;10381;53.730;10.010;2023-06-24T07:09:14;14.33;;;12.93;;
20443;SDS011;10381;53.730;10.010;2023-06-24T07:13:15;10.02;;;9.02;;
20443;SDS011;10381;53.730;10.010;2023-06-24T07:17:15;6.88;;;6.05;;
20443;SDS011;10381;53.730;10.010;2023-06-24T07:21:15;10.45;;;6.13;;
20443;SDS011;10381;53.730;10.010;2023-06-24T07:25:15;10.50;;;7.35;;
20443;SDS011;10381;53.730;10.010;2023-06-24T07:29:15;10.38;;;9.35;;
20443;SDS011;10381;53.730;10.010;2023-06-24T07:33:15;12.13;;;8.95;;
20443;SDS011;10381;53.730;10.010;2023-06-24T07:37:16;13.45;;;9.95;;
20443;SDS011;10381;53.730;10.010;2023-06-24T07:41:16;11.52;;;9.73;;
20443;SDS011;10381;53.730;10.010;2023-06-24T07:45:16;11.20;;;10.07;;
20443;SDS011;10381;53.730;10.010;2023-06-24T07:49:17;11.90;;;10.80;;
20443;SDS011;10381;53.730;10.010;2023-06-24T07:53:17;10.45;;;9.40;;
20443;SDS011;10381;53.730;10.010;2023-06-24T07:57:17;8.65;;;7.32;;
20443;SDS011;10381;53.730;10.010;2023-06-24T08:01:17;10.38;;;9.27;;
20443;SDS011;10381;53.730;10.010;2023-06-24T08:05:18;10.25;;;9.27;;
20443;SDS011;10381;53.730;10.010;2023-06-24T08:09:18;12.57;;;8.65;;
20443;SDS011;10381;53.730;10.010;2023-06-24T08:13:19;9.27;;;8.38;;
20443;SDS011;10381;53.730;10.010;2023-06-24T08:17:19;9.10;;;7.75;;
20443;SDS011;10381;53.730;10.010;2023-06-24T08:21:19;9.15;;;8.25;;
20443;SDS011;10381;53.730;10.010;2023-06-24T08:25:19;7.97;;;7.27;;
20443;SDS011;10381;53.730;10.010;2023-06-24T08:29:20;10.23;;;8.98;;
20443;SDS011;10381;53.730;10.010;2023-06-24T08:33:20;13.17;;;7.43;;
20443;SDS011;10381;53.730;10.010;2023-06-24T08:37:20;10.25;;;6.60;;
20443;SDS011;10381;53.730;10.010;2023-06-24T08:41:20;11.48;;;6.93;;
20443;SDS011;10381;53.730;10.010;2023-06-24T08:45:21;7.95;;;7.18;;
20443;SDS011;10381;53.730;10.010;2023-06-24T08:53:24;9.98;;;8.27;;
20443;SDS011;10381;53.730;10.010;2023-06-24T08:57:26;9.23;;;7.93;;
20443;SDS011;10381;53.730;10.010;2023-06-24T09:01:26;8.68;;;7.53;;
20443;SDS011;10381;53.730;10.010;2023-06-24T09:05:27;9.88;;;6.82;;
20443;SDS011;10381;53.730;10.010;2023-06-24T09:09:27;7.85;;;7.15;;
20443;SDS011;10381;53.730;10.010;2023-06-24T09:13:34;8.60;;;7.38;;
20443;SDS011;10381;53.730;10.010;2023-06-24T09:17:44;7.10;;;6.40;;
20443;SDS011;10381;53.730;10.010;2023-06-24T09:21:44;7.93;;;6.43;;
20443;SDS011;10381;53.730;10.010;2023-06-24T09:25:48;8.85;;;7.03;;
20443;SDS011;10381;53.730;10.010;2023-06-24T09:29:55;8.40;;;7.40;;
20443;SDS011;10381;53.730;10.010;2023-06-24T09:33:58;13.75;;;7.35;;
20443;SDS011;10381;53.730;10.010;2023-06-24T09:37:59;8.02;;;7.22;;
20443;SDS011;10381;53.730;10.010;2023-06-24T09:42:00;7.40;;;6.65;;
20443;SDS011;10381;53.730;10.010;2023-06-24T09:46:01;6.50;;;5.90;;
20443;SDS011;10381;53.730;10.010;2023-06-24T09:50:01;7.55;;;6.85;;
20443;SDS011;10381;53.730;10.010;2023-06-24T09:54:01;8.20;;;6.30;;
20443;SDS011;10381;53.730;10.010;2023-06-24T09:58:02;7.38;;;6.65;;
20443;SDS011;10381;53.730;10.010;2023-06-24T10:02:03;8.52;;;7.40;;
20443;SDS011;10381;53.730;10.010;2023-06-24T10:06:04;15.25;;;7.18;;
20443;SDS011;10381;53.730;10.010;2023-06-24T10:10:05;11.02;;;6.75;;
20443;SDS011;10381;53.730;10.010;2023-06-24T10:14:05;7.38;;;6.50;;
20443;SDS011;10381;53.730;10.010;2023-06-24T10:22:25;6.88;;;5.97;;
20443;SDS011;10381;53.730;10.010;2023-06-24T10:26:26;10.80;;;6.63;;
20443;SDS011;10381;53.730;10.010;2023-06-24T10:30:28;6.90;;;5.55;;
20443;SDS011;10381;53.730;10.010;2023-06-24T10:34:30;5.85;;;5.18;;
20443;SDS011;10381;53.730;10.010;2023-06-24T10:38:31;6.53;;;5.82;;
20443;SDS011;10381;53.730;10.010;2023-06-24T10:42:37;6.05;;;5.47;;
20443;SDS011;10381;53.730;10.010;2023-06-24T10:46:38;7.25;;;5.78;;
20443;SDS011;10381;53.730;10.010;2023-06-24T10:50:38;12.15;;;6.38;;
20443;SDS011;10381;53.730;10.010;2023-06-24T10:54:39;9.48;;;5.97;;
20443;SDS011;10381;53.730;10.010;2023-06-24T10:58:39;7.60;;;5.43;;
20443;SDS011;10381;53.730;10.010;2023-06-24T11:02:39;9.50;;;5.65;;
20443;SDS011;10381;53.730;10.010;2023-06-24T11:06:39;6.25;;;5.32;;
20443;SDS011;10381;53.730;10.010;2023-06-24T11:10:43;7.68;;;5.60;;
20443;SDS011;10381;53.730;10.010;2023-06-24T11:14:43;6.47;;;5.65;;
20443;SDS011;10381;53.730;10.010;2023-06-24T11:18:44;6.85;;;5.78;;
20443;SDS011;10381;53.730;10.010;2023-06-24T11:22:44;8.32;;;6.00;;
20443;SDS011;10381;53.730;10.010;2023-06-24T11:26:46;9.18;;;6.47;;
20443;SDS011;10381;53.730;10.010;2023-06-24T11:30:47;9.68;;;5.93;;
20443;SDS011;10381;53.730;10.010;2023-06-24T11:34:47;6.43;;;5.00;;
20443;SDS011;10381;53.730;10.010;2023-06-24T11:38:48;8.02;;;6.78;;
20443;SDS011;10381;53.730;10.010;2023-06-24T11:42:48;7.45;;;5.50;;
20443;SDS011;10381;53.730;10.010;2023-06-24T11:46:50;7.57;;;5.35;;
20443;SDS011;10381;53.730;10.010;2023-06-24T11:50:53;13.20;;;6.10;;
20443;SDS011;10381;53.730;10.010;2023-06-24T11:54:56;7.28;;;5.40;;
20443;SDS011;10381;53.730;10.010;2023-06-24T11:58:57;7.10;;;5.00;;
20443;SDS011;10381;53.730;10.010;2023-06-24T12:02:58;6.57;;;5.35;;
20443;SDS011;10381;53.730;10.010;2023-06-24T12:06:59;6.55;;;5.63;;
20443;SDS011;10381;53.730;10.010;2023-06-24T12:11:00;7.85;;;5.18;;
20443;SDS011;10381;53.730;10.010;2023-06-24T12:15:00;6.88;;;5.53;;
20443;SDS011;10381;53.730;10.010;2023-06-24T12:19:00;7.00;;;5.82;;
20443;SDS011;10381;53.730;10.010;2023-06-24T12:23:00;7.68;;;5.43;;
20443;SDS011;10381;53.730;10.010;2023-06-24T12:27:00;8.68;;;5.63;;
20443;SDS011;10381;53.730;10.010;2023-06-24T12:31:01;5.60;;;4.78;;
20443;SDS011;10381;53.730;10.010;2023-06-24T12:35:01;6.55;;;4.95;;
20443;SDS011;10381;53.730;10.010;2023-06-24T12:39:02;7.35;;;5.85;;
20443;SDS011;10381;53.730;10.010;2023-06-24T12:43:03;7.53;;;6.10;;
20443;SDS011;10381;53.730;10.010;2023-06-24T12:47:04;12.82;;;5.47;;
20443;SDS011;10381;53.730;10.010;2023-06-24T12:51:04;7.22;;;5.10;;
20443;SDS011;10381;53.730;10.010;2023-06-24T12:55:05;6.95;;;5.28;;
20443;SDS011;10381;53.730;10.010;2023-06-24T12:59:06;5.97;;;5.35;;
20443;SDS011;10381;53.730;10.010;2023-06-24T13:03:06;6.75;;;5.35;;
20443;SDS011;10381;53.730;10.010;2023-06-24T13:07:06;4.90;;;4.50;;
20443;SDS011;10381;53.730;10.010;2023-06-24T13:11:07;6.97;;;4.72;;
20443;SDS011;10381;53.730;10.010;2023-06-24T13:15:07;7.72;;;4.93;;
20443;SDS011;10381;53.730;10.010;2023-06-24T13:19:09;5.85;;;5.22;;
20443;SDS011;10381;53.730;10.010;2023-06-24T13:23:09;4.88;;;4.43;;
20443;SDS011;10381;53.730;10.010;2023-06-24T13:27:09;5.03;;;4.60;;
20443;SDS011;10381;53.730;10.010;2023-06-24T13:31:09;5.75;;;4.95;;
20443;SDS011;10381;53.730;10.010;2023-06-24T13:35:10;7.70;;;4.65;;
20443;SDS011;10381;53.730;10.010;2023-06-24T13:39:10;5.75;;;4.45;;
20443;SDS011;10381;53.730;10.010;2023-06-24T13:43:16;5.60;;;4.68;;
20443;SDS011;10381;53.730;10.010;2023-06-24T13:47:16;6.72;;;5.78;;
20443;SDS011;10381;53.730;10.010;2023-06-24T13:51:17;5.85;;;5.25;;
20443;SDS011;10381;53.730;10.010;2023-06-24T13:55:18;5.13;;;4.53;;
20443;SDS011;10381;53.730;10.010;2023-06-24T13:59:18;5.57;;;5.00;;
20443;SDS011;10381;53.730;10.010;2023-06-24T14:03:18;5.50;;;4.93;;
20443;SDS011;10381;53.730;10.010;2023-06-24T14:07:18;6.28;;;5.07;;
20443;SDS011;10381;53.730;10.010;2023-06-24T14:11:18;4.55;;;4.10;;
20443;SDS011;10381;53.730;10.010;2023-06-24T14:15:18;6.82;;;4.70;;
20443;SDS011;10381;53.730;10.010;2023-06-24T14:19:19;8.13;;;5.00;;
20443;SDS011;10381;53.730;10.010;2023-06-24T14:23:19;6.23;;;4.50;;
20443;SDS011;10381;53.730;10.010;2023-06-24T14:27:19;9.32;;;4.60;;
20443;SDS011;10381;53.730;10.010;2023-06-24T14:31:19;5.95;;;4.47;;
20443;SDS011;10381;53.730;10.010;2023-06-24T14:35:19;5.47;;;4.72;;
20443;SDS011;10381;53.730;10.010;2023-06-24T14:39:20;5.50;;;4.50;;
20443;SDS011;10381;53.730;10.010;2023-06-24T14:43:20;6.45;;;4.88;;
20443;SDS011;10381;53.730;10.010;2023-06-24T14:47:20;7.57;;;4.17;;
20443;SDS011;10381;53.730;10.010;2023-06-24T14:51:20;5.30;;;4.72;;
20443;SDS011;10381;53.730;10.010;2023-06-24T14:55:21;5.50;;;4.68;;
20443;SDS011;10381;53.730;10.010;2023-06-24T14:59:21;5.13;;;4.55;;
20443;SDS011;10381;53.730;10.010;2023-06-24T15:03:21;5.50;;;4.68;;
20443;SDS011;10381;53.730;10.010;2023-06-24T15:07:21;4.82;;;4.40;;
20443;SDS011;10381;53.730;10.010;2023-06-24T15:11:21;6.10;;;4.60;;
20443;SDS011;10381;53.730;10.010;2023-06-24T15:15:22;4.97;;;4.50;;
20443;SDS011;10381;53.730;10.010;2023-06-24T15:19:22;8.38;;;4.53;;
20443;SDS011;10381;53.730;10.010;2023-06-24T15:23:22;5.50;;;4.97;;
20443;SDS011;10381;53.730;10.010;2023-06-24T15:27:22;5.15;;;4.50;;
20443;SDS011;10381;53.730;10.010;2023-06-24T15:31:22;4.93;;;4.43;;
20443;SDS011;10381;53.730;10.010;2023-06-24T15:35:23;4.70;;;4.22;;
20443;SDS011;10381;53.730;10.010;2023-06-24T15:39:23;5.77;;;3.70;;
20443;SDS011;10381;53.730;10.010;2023-06-24T15:43:23;5.47;;;4.43;;
20443;SDS011;10381;53.730;10.010;2023-06-24T15:47:24;3.85;;;3.55;;
20443;SDS011;10381;53.730;10.010;2023-06-24T15:51:24;4.43;;;4.03;;
20443;SDS011;10381;53.730;10.010;2023-06-24T15:55:24;7.57;;;4.57;;
20443;SDS011;10381;53.730;10.010;2023-06-24T15:59:25;4.82;;;4.13;;
20443;SDS011;10381;53.730;10.010;2023-06-24T16:03:25;9.57;;;3.70;;
20443;SDS011;10381;53.730;10.010;2023-06-24T16:07:25;5.00;;;4.50;;
20443;SDS011;10381;53.730;10.010;2023-06-24T16:11:25;5.63;;;4.70;;
20443;SDS011;10381;53.730;10.010;2023-06-24T16:15:25;5.65;;;4.25;;
20443;SDS011;10381;53.730;10.010;2023-06-24T16:19:27;5.45;;;4.25;;
20443;SDS011;10381;53.730;10.010;2023-06-24T16:23:28;8.00;;;5.13;;
20443;SDS011;10381;53.730;10.010;2023-06-24T16:27:28;5.30;;;4.78;;
20443;SDS011;10381;53.730;10.010;2023-06-24T16:31:28;5.43;;;4.68;;
20443;SDS011;10381;53.730;10.010;2023-06-24T16:35:28;8.43;;;4.80;;
20443;SDS011;10381;53.730;10.010;2023-06-24T16:39:28;12.02;;;4.72;;
20443;SDS011;10381;53.730;10.010;2023-06-24T16:43:30;5.60;;;4.60;;
20443;SDS011;10381;53.730;10.010;2023-06-24T16:47:30;5.40;;;4.68;;
20443;SDS011;10381;53.730;10.010;2023-06-24T16:51:30;6.18;;;4.68;;
20443;SDS011;10381;53.730;10.010;2023-06-24T16:55:30;5.22;;;4.65;;
20443;SDS011;10381;53.730;10.010;2023-06-24T16:59:30;6.22;;;4.55;;
20443;SDS011;10381;53.730;10.010;2023-06-24T17:03:30;8.82;;;4.90;;
20443;SDS011;10381;53.730;10.010;2023-06-24T17:07:30;4.63;;;4.20;;
20443;SDS011;10381;53.730;10.010;2023-06-24T17:11:31;8.60;;;4.68;;
20443;SDS011;10381;53.730;10.010;2023-06-24T17:15:31;7.32;;;4.05;;
20443;SDS011;10381;53.730;10.010;2023-06-24T17:19:32;6.22;;;4.40;;
20443;SDS011;10381;53.730;10.010;2023-06-24T17:23:32;7.53;;;4.43;;
20443;SDS011;10381;53.730;10.010;2023-06-24T17:27:32;8.95;;;3.85;;
20443;SDS011;10381;53.730;10.010;2023-06-24T17:31:32;5.60;;;4.45;;
20443;SDS011;10381;53.730;10.010;2023-06-24T17:35:32;8.25;;;4.55;;
20443;SDS011;10381;53.730;10.010;2023-06-24T17:39:33;6.38;;;4.38;;
20443;SDS011;10381;53.730;10.010;2023-06-24T17:43:33;5.45;;;4.43;;
20443;SDS011;10381;53.730;10.010;2023-06-24T17:47:33;5.95;;;4.90;;
20443;SDS011;10381;53.730;10.010;2023-06-24T17:51:33;5.53;;;4.65;;
20443;SDS011;10381;53.730;10.010;2023-06-24T17:55:33;6.97;;;3.70;;
20443;SDS011;10381;53.730;10.010;2023-06-24T17:59:35;6.07;;;4.50;;
20443;SDS011;10381;53.730;10.010;2023-06-24T18:03:35;4.38;;;3.80;;
20443;SDS011;10381;53.730;10.010;2023-06-24T18:07:36;7.30;;;5.40;;
20443;SDS011;10381;53.730;10.010;2023-06-24T18:11:36;8.60;;;4.53;;
20443;SDS011;10381;53.730;10.010;2023-06-24T18:15:36;6.40;;;4.80;;
20443;SDS011;10381;53.730;10.010;2023-06-24T18:19:36;8.37;;;4.60;;
20443;SDS011;10381;53.730;10.010;2023-06-24T18:23:37;6.53;;;4.80;;
20443;SDS011;10381;53.730;10.010;2023-06-24T18:27:37;6.90;;;4.78;;
20443;SDS011;10381;53.730;10.010;2023-06-24T18:31:40;6.30;;;4.93;;
20443;SDS011;10381;53.730;10.010;2023-06-24T18:35:42;6.30;;;5.03;;
20443;SDS011;10381;53.730;10.010;2023-06-24T18:39:42;8.02;;;5.25;;
20443;SDS011;10381;53.730;10.010;2023-06-24T18:43:44;6.68;;;4.45;;
20443;SDS011;10381;53.730;10.010;2023-06-24T18:47:44;5.70;;;4.85;;
20443;SDS011;10381;53.730;10.010;2023-06-24T18:51:45;6.18;;;4.72;;
20443;SDS011;10381;53.730;10.010;2023-06-24T18:55:45;5.07;;;4.30;;
20443;SDS011;10381;53.730;10.010;2023-06-24T18:59:45;5.03;;;4.30;;
20443;SDS011;10381;53.730;10.010;2023-06-24T19:03:46;6.20;;;4.97;;
20443;SDS011;10381;53.730;10.010;2023-06-24T19:07:46;9.82;;;5.00;;
20443;SDS011;10381;53.730;10.010;2023-06-24T19:11:46;8.40;;;5.15;;
20443;SDS011;10381;53.730;10.010;2023-06-24T19:15:46;7.15;;;5.10;;
20443;SDS011;10381;53.730;10.010;2023-06-24T19:19:46;7.45;;;5.32;;
20443;SDS011;10381;53.730;10.010;2023-06-24T19:23:46;6.65;;;5.63;;
20443;SDS011;10381;53.730;10.010;2023-06-24T19:27:47;8.10;;;5.40;;
20443;SDS011;10381;53.730;10.010;2023-06-24T19:31:47;6.78;;;5.30;;
20443;SDS011;10381;53.730;10.010;2023-06-24T19:35:47;7.57;;;4.95;;
20443;SDS011;10381;53.730;10.010;2023-06-24T19:39:47;9.10;;;5.80;;
20443;SDS011;10381;53.730;10.010;2023-06-24T19:43:48;10.98;;;6.25;;
20443;SDS011;10381;53.730;10.010;2023-06-24T19:47:48;14.43;;;6.20;;
20443;SDS011;10381;53.730;10.010;2023-06-24T19:51:48;7.47;;;5.00;;
20443;SDS011;10381;53.730;10.010;2023-06-24T19:55:48;11.70;;;5.47;;
20443;SDS011;10381;53.730;10.010;2023-06-24T19:59:49;6.95;;;5.72;;
20443;SDS011;10381;53.730;10.010;2023-06-24T20:03:49;7.10;;;6.33;;
20443;SDS011;10381;53.730;10.010;2023-06-24T20:07:49;8.00;;;6.20;;
20443;SDS011;10381;53.730;10.010;2023-06-24T20:11:49;9.68;;;7.40;;
20443;SDS011;10381;53.730;10.010;2023-06-24T20:15:50;8.65;;;6.90;;
20443;SDS011;10381;53.730;10.010;2023-06-24T20:19:50;12.55;;;7.05;;
20443;SDS011;10381;53.730;10.010;2023-06-24T20:23:50;10.35;;;8.68;;
20443;SDS011;10381;53.730;10.010;2023-06-24T20:27:50;10.20;;;9.20;;
20443;SDS011;10381;53.730;10.010;2023-06-24T20:31:50;12.35;;;9.27;;
20443;SDS011;10381;53.730;10.010;2023-06-24T20:35:50;12.20;;;10.18;;
20443;SDS011;10381;53.730;10.010;2023-06-24T20:39:51;11.43;;;10.13;;
20443;SDS011;10381;53.730;10.010;2023-06-24T20:43:51;10.93;;;9.82;;
20443;SDS011;10381;53.730;10.010;2023-06-24T20:47:51;12.13;;;10.18;;
20443;SDS011;10381;53.730;10.010;2023-06-24T20:51:51;18.30;;;10.82;;
20443;SDS011;10381;53.730;10.010;2023-06-24T20:55:53;13.45;;;11.73;;
20443;SDS011;10381;53.730;10.010;2023-06-24T20:59:53;12.18;;;10.63;;
20443;SDS011;10381;53.730;10.010;2023-06-24T21:03:53;11.73;;;10.10;;
20443;SDS011;10381;53.730;10.010;2023-06-24T21:07:53;13.50;;;10.88;;
20443;SDS011;10381;53.730;10.010;2023-06-24T21:11:53;11.67;;;10.23;;
20443;SDS011;10381;53.730;10.010;2023-06-24T21:15:54;13.85;;;10.65;;
20443;SDS011;10381;53.730;10.010;2023-06-24T21:19:54;14.43;;;11.05;;
20443;SDS011;10381;53.730;10.010;2023-06-24T21:23:54;12.33;;;10.80;;
20443;SDS011;10381;53.730;10.010;2023-06-24T21:27:54;15.38;;;10.73;;
20443;SDS011;10381;53.730;10.010;2023-06-24T21:31:55;12.55;;;10.02;;
20443;SDS011;10381;53.730;10.010;2023-06-24T21:35:55;16.10;;;10.40;;
20443;SDS011;10381;53.730;10.010;2023-06-24T21:39:55;14.80;;;10.98;;
20443;SDS011;10381;53.730;10.010;2023-06-24T21:43:55;13.52;;;11.73;;
20443;SDS011;10381;53.730;10.010;2023-06-24T21:47:56;14.10;;;12.57;;
20443;SDS011;10381;53.730;10.010;2023-06-24T21:51:56;14.25;;;12.85;;
20443;SDS011;10381;53.730;10.010;2023-06-24T21:55:58;16.63;;;13.30;;
20443;SDS011;10381;53.730;10.010;2023-06-24T21:59:58;18.83;;;13.98;;
20443;SDS011;10381;53.730;10.010;2023-06-24T22:03:58;22.00;;;14.35;;
20443;SDS011;10381;53.730;10.010;2023-06-24T22:07:58;19.08;;;13.20;;
20443;SDS011;10381;53.730;10.010;2023-06-24T22:11:59;18.08;;;13.95;;
20443;SDS011;10381;53.730;10.010;2023-06-24T22:15:59;17.05;;;14.68;;
20443;SDS011;10381;53.730;10.010;2023-06-24T22:19:59;20.45;;;14.77;;
20443;SDS011;10381;53.730;10.010;2023-06-24T22:23:59;20.40;;;15.15;;
20443;SDS011;10381;53.730;10.010;2023-06-24T22:27:59;16.90;;;15.00;;
20443;SDS011;10381;53.730;10.010;2023-06-24T22:31:59;21.17;;;16.45;;
20443;SDS011;10381;53.730;10.010;2023-06-24T22:36:00;21.58;;;16.63;;
20443;SDS011;10381;53.730;10.010;2023-06-24T22:40:00;19.85;;;14.38;;
20443;SDS011;10381;53.730;10.010;2023-06-24T22:44:00;18.35;;;14.38;;
20443;SDS011;10381;53.730;10.010;2023-06-24T22:48:00;17.87;;;14.30;;
20443;SDS011;10381;53.730;10.010;2023-06-24T22:52:01;16.13;;;12.75;;
20443;SDS011;10381;53.730;10.010;2023-06-24T22:56:04;15.77;;;11.88;;
20443;SDS011;10381;53.730;10.010;2023-06-24T23:00:04;20.02;;;12.27;;
20443;SDS011;10381;53.730;10.010;2023-06-24T23:04:05;16.00;;;11.82;;
20443;SDS011;10381;53.730;10.010;2023-06-24T23:08:05;17.40;;;12.20;;
20443;SDS011;10381;53.730;10.010;2023-06-24T23:12:06;16.42;;;12.57;;
20443;SDS011;10381;53.730;10.010;2023-06-24T23:16:06;16.50;;;11.32;;
20443;SDS011;10381;53.730;10.010;2023-06-24T23:20:07;18.17;;;11.73;;
20443;SDS011;10381;53.730;10.010;2023-06-24T23:24:07;15.60;;;11.77;;
20443;SDS011;10381;53.730;10.010;2023-06-24T23:28:09;17.40;;;12.65;;
20443;SDS011;10381;53.730;10.010;2023-06-24T23:32:15;15.05;;;11.32;;
20443;SDS011;10381;53.730;10.010;2023-06-24T23:36:16;13.32;;;10.23;;
20443;SDS011;10381;53.730;10.010;2023-06-24T23:40:16;16.87;;;10.50;;
20443;SDS011;10381;53.730;10.010;2023-06-24T23:44:17;15.57;;;10.55;;